Time;durP1;ratioP1;P1;durP2;ratioP2;P2;SDS_P1;SDS_P2;PMS_P1;PMS_P2;Temp;Humidity;BMP_temperature;BMP_pressure;BME280_temperature;BME280_humidity;BME280_pressure;Samples;Min_cycle;Max_cycle;Signal;HPM_P1;HPM_P2
2022/11/12 03:51:32;;;;;;;3.40;3.00;;;3.30;99.90;;;;;;4979396;29;20188;-95
2022/11/12 04:00:50;;;;;;;3.30;2.72;;;3.30;99.90;;;;;;4979429;29;20177;-95
2022/11/12 04:03:40;;;;;;;3.95;2.40;;;3.20;99.90;;;;;;4978070;29;20177;-95
2022/11/12 04:09:28;;;;;;;3.53;2.75;;;3.20;99.90;;;;;;4981110;29;20172;-96
2022/11/12 07:30:56;;;;;;;2.67;2.47;;;4.20;99.90;;;;;;4977937;28;20215;-93
2022/11/12 07:33:24;;;;;;;3.03;2.70;;;4.40;99.90;;;;;;4961685;29;20213;-94
2022/11/12 10:00:35;;;;;;;4.13;2.00;;;15.20;99.90;;;;;;5411319;23;20523;-67
2022/11/12 10:03:07;;;;;;;2.30;2.10;;;15.20;99.90;;;;;;4954106;28;20456;-66
2022/11/12 10:05:39;;;;;;;2.33;2.13;;;15.30;99.90;;;;;;4936736;28;20478;-67
2022/11/12 10:08:28;;;;;;;2.40;1.97;;;15.30;99.90;;;;;;4944772;28;20469;-67
2022/11/12 10:11:06;;;;;;;1.90;1.80;;;15.10;99.90;;;;;;4949594;28;20514;-67
2022/11/12 10:13:45;;;;;;;2.17;1.97;;;15.00;99.90;;;;;;4940348;28;20497;-67
2022/11/12 10:16:43;;;;;;;2.60;2.40;;;14.90;99.90;;;;;;4935989;28;20464;-67
2022/11/12 10:19:25;;;;;;;2.70;1.90;;;14.90;99.90;;;;;;4947960;28;20471;-67
2022/11/12 10:22:03;;;;;;;2.27;2.07;;;14.50;99.90;;;;;;4941346;28;20522;-67
2022/11/12 10:24:36;;;;;;;2.60;2.40;;;14.10;99.90;;;;;;4958595;28;20451;-67
2022/11/12 10:27:13;;;;;;;2.93;2.10;;;14.20;99.90;;;;;;4972787;28;20915;-66
2022/11/12 10:29:46;;;;;;;3.03;2.77;;;14.00;99.90;;;;;;4972224;28;20479;-66
2022/11/12 10:32:16;;;;;;;3.30;3.00;;;14.10;99.90;;;;;;4972131;28;20494;-67
2022/11/12 10:34:43;;;;;;;3.17;2.87;;;14.20;99.90;;;;;;4972311;28;20892;-66
2022/11/12 10:37:14;;;;;;;3.33;3.03;;;14.30;99.90;;;;;;4972026;28;20817;-67
2022/11/12 10:39:46;;;;;;;3.90;3.37;;;14.70;99.90;;;;;;4956685;28;20863;-67
2022/11/12 10:42:15;;;;;;;3.47;3.17;;;14.80;99.90;;;;;;4967753;28;20460;-67
2022/11/12 10:44:43;;;;;;;3.90;3.10;;;15.10;99.90;;;;;;4947721;28;20959;-67
2022/11/12 10:47:41;;;;;;;3.50;3.20;;;15.40;99.90;;;;;;4962498;28;20463;-67
2022/11/12 10:50:17;;;;;;;3.47;3.17;;;15.60;99.90;;;;;;4959939;28;20518;-67
2022/11/12 10:52:59;;;;;;;4.17;3.77;;;15.80;99.90;;;;;;4972515;28;20496;-68
2022/11/12 10:55:28;;;;;;;4.10;3.60;;;16.00;99.90;;;;;;4971915;28;20473;-67
2022/11/12 10:58:11;;;;;;;4.00;3.60;;;16.00;99.90;;;;;;4972380;28;20475;-68
2022/11/12 11:03:27;;;;;;;4.23;2.70;;;16.00;99.90;;;;;;4950383;23;20504;-67
2022/11/12 11:05:56;;;;;;;2.73;2.50;;;16.00;99.90;;;;;;4952206;29;20462;-67
2022/11/12 11:08:41;;;;;;;4.37;3.03;;;16.20;99.90;;;;;;4952579;29;20964;-67
2022/11/12 11:11:21;;;;;;;2.70;2.50;;;16.30;99.90;;;;;;4951243;29;20489;-66
2022/11/12 11:13:48;;;;;;;3.40;3.10;;;16.60;99.90;;;;;;4952697;29;20485;-67
2022/11/12 11:16:17;;;;;;;3.20;2.33;;;16.80;99.90;;;;;;4952506;29;20464;-67
2022/11/12 11:18:51;;;;;;;2.97;2.70;;;17.10;99.90;;;;;;4944766;28;20477;-67
2022/11/12 11:21:40;;;;;;;2.77;2.57;;;17.30;99.90;;;;;;4943700;28;20530;-67
2022/11/12 11:24:24;;;;;;;3.13;2.60;;;17.40;99.90;;;;;;4949904;28;20552;-67
2022/11/12 11:26:57;;;;;;;3.07;2.77;;;17.30;99.90;;;;;;4937977;28;20467;-68
2022/11/12 11:29:37;;;;;;;3.57;2.67;;;17.10;99.90;;;;;;4942543;28;20846;-66
2022/11/12 11:32:11;;;;;;;2.90;2.50;;;17.00;99.90;;;;;;4953726;28;20479;-67
2022/11/12 11:34:48;;;;;;;2.90;2.13;;;16.90;99.90;;;;;;4970931;28;21130;-67
2022/11/12 11:37:25;;;;;;;2.80;2.60;;;16.80;99.90;;;;;;4970863;28;20470;-67
2022/11/12 11:40:01;;;;;;;2.77;2.57;;;16.80;99.90;;;;;;4971639;28;21159;-68
2022/11/12 11:42:48;;;;;;;3.00;2.70;;;16.70;99.90;;;;;;4970672;28;20513;-67
2022/11/12 11:45:18;;;;;;;3.83;3.07;;;16.70;99.90;;;;;;4970995;28;20851;-66
2022/11/12 11:47:53;;;;;;;4.30;2.87;;;16.70;99.90;;;;;;4971385;28;20456;-67
2022/11/12 11:50:27;;;;;;;4.00;2.90;;;16.80;99.90;;;;;;4970308;28;20487;-67
2022/11/12 11:53:04;;;;;;;3.17;2.87;;;16.90;99.90;;;;;;4971316;28;20484;-67
2022/11/12 11:55:48;;;;;;;4.93;3.17;;;16.90;99.90;;;;;;4970828;28;20459;-67
2022/11/12 11:58:37;;;;;;;3.17;2.87;;;16.90;99.90;;;;;;4971233;28;20467;-67
2022/11/12 12:01:13;;;;;;;3.47;3.17;;;16.80;99.90;;;;;;4970299;28;20479;-67
2022/11/12 12:03:54;;;;;;;5.03;3.30;;;16.70;99.90;;;;;;4970734;28;20452;-67
2022/11/12 12:06:26;;;;;;;3.30;3.00;;;16.70;99.90;;;;;;4971040;28;20992;-68
2022/11/12 12:09:03;;;;;;;3.17;2.87;;;16.60;99.90;;;;;;4970694;28;20458;-67
2022/11/12 12:11:36;;;;;;;2.70;2.50;;;16.50;99.90;;;;;;4969644;28;21072;-68
2022/11/12 12:14:28;;;;;;;2.90;2.50;;;16.30;99.90;;;;;;4962999;28;20483;-68
2022/11/12 12:17:03;;;;;;;7.10;3.50;;;16.20;99.90;;;;;;4950754;29;20472;-68
2022/11/12 12:19:58;;;;;;;3.80;3.40;;;16.00;99.90;;;;;;4950574;29;20471;-68
2022/11/12 12:22:35;;;;;;;3.03;2.83;;;15.70;99.90;;;;;;4936249;29;20468;-68
2022/11/12 12:25:09;;;;;;;3.03;2.83;;;15.50;99.90;;;;;;4950347;29;20460;-67
2022/11/12 12:27:40;;;;;;;4.10;3.30;;;15.20;99.90;;;;;;4950388;29;20470;-67
2022/11/12 12:30:16;;;;;;;3.20;2.90;;;15.00;99.90;;;;;;4951894;29;20485;-68
2022/11/12 12:32:48;;;;;;;4.00;3.50;;;14.80;99.90;;;;;;5006772;23;20513;-69
2022/11/12 12:35:22;;;;;;;3.50;3.20;;;14.70;99.90;;;;;;4921388;29;20458;-69
2022/11/12 12:38:01;;;;;;;3.20;2.90;;;14.70;99.90;;;;;;4948031;29;20452;-70
2022/11/12 12:40:33;;;;;;;3.50;3.20;;;14.70;99.90;;;;;;4950862;29;20491;-70
2022/11/12 12:43:06;;;;;;;3.03;2.17;;;14.60;99.90;;;;;;4952330;29;20463;-69
2022/11/12 12:45:39;;;;;;;3.63;3.30;;;14.60;99.90;;;;;;4951002;29;20463;-69
2022/11/12 12:48:11;;;;;;;3.10;2.30;;;14.50;99.90;;;;;;4932561;29;20453;-69
2022/11/12 12:50:40;;;;;;;3.93;3.20;;;14.50;99.90;;;;;;4932321;29;21035;-69
2022/11/12 12:53:18;;;;;;;3.03;2.73;;;14.40;99.90;;;;;;4932612;29;20584;-67
2022/11/12 12:55:47;;;;;;;3.43;2.93;;;14.30;99.90;;;;;;4933212;29;20468;-69
2022/11/12 12:58:23;;;;;;;3.07;2.77;;;14.30;99.90;;;;;;4930134;29;21311;-68
2022/11/12 13:00:53;;;;;;;4.80;2.90;;;14.30;99.90;;;;;;4930790;29;20491;-68
2022/11/12 13:03:49;;;;;;;4.13;3.30;;;14.20;99.90;;;;;;4931245;29;20558;-68
2022/11/12 13:06:24;;;;;;;4.07;3.30;;;14.20;99.90;;;;;;4931029;29;20896;-69
2022/11/12 13:08:56;;;;;;;3.87;2.93;;;14.10;99.90;;;;;;4936107;29;20454;-69
2022/11/12 13:15:15;;;;;;;5.00;3.70;;;14.20;99.90;;;;;;4935532;29;20504;-69
2022/11/12 13:17:50;;;;;;;3.70;3.30;;;14.30;99.90;;;;;;4907092;29;20457;-70
2022/11/12 13:20:41;;;;;;;4.10;3.70;;;14.30;99.90;;;;;;4934712;29;20481;-69
2022/11/12 13:23:11;;;;;;;6.18;3.78;;;14.40;99.90;;;;;;4933851;29;20924;-67
2022/11/12 13:25:39;;;;;;;4.97;3.73;;;14.40;99.90;;;;;;4913777;29;20221;-68
2022/11/12 13:28:08;;;;;;;3.60;3.30;;;14.40;99.90;;;;;;4915108;29;20976;-69
2022/11/12 13:31:04;;;;;;;3.60;3.30;;;14.40;99.90;;;;;;4912244;29;20483;-68
2022/11/12 13:33:35;;;;;;;3.60;3.30;;;14.30;99.90;;;;;;4914333;29;20497;-67
2022/11/12 13:36:28;;;;;;;3.87;3.57;;;14.30;99.90;;;;;;4926016;29;20461;-68
2022/11/12 13:39:07;;;;;;;3.40;2.97;;;14.20;99.90;;;;;;4930670;29;20469;-68
2022/11/12 13:44:20;;;;;;;7.40;3.30;;;14.00;99.90;;;;;;4934839;29;20441;-68
2022/11/12 13:46:50;;;;;;;3.60;3.17;;;13.90;99.90;;;;;;4935601;29;20457;-68
2022/11/12 13:49:17;;;;;;;3.67;3.33;;;13.70;99.90;;;;;;4934284;29;21108;-68
2022/11/12 13:51:46;;;;;;;6.30;4.00;;;13.70;99.90;;;;;;4934525;29;20820;-68
2022/11/12 13:54:31;;;;;;;4.20;3.80;;;13.60;99.90;;;;;;4934658;29;20488;-68
2022/11/12 14:00:20;;;;;;;4.87;3.50;;;13.50;99.90;;;;;;5081619;27;20552;-67
2022/11/12 14:02:51;;;;;;;4.33;3.43;;;13.20;99.90;;;;;;5046735;28;20649;-67
2022/11/12 14:05:20;;;;;;;3.83;3.37;;;13.20;99.90;;;;;;5060888;28;20455;-68
2022/11/12 14:07:55;;;;;;;5.20;3.30;;;13.10;99.90;;;;;;5065629;28;20481;-68
2022/11/12 14:10:35;;;;;;;3.73;3.30;;;13.00;99.90;;;;;;5057544;28;21037;-67
2022/11/12 14:13:39;;;;;;;4.10;3.23;;;13.00;99.90;;;;;;5065853;28;20462;-67
2022/11/12 14:16:22;;;;;;;3.97;3.57;;;13.00;99.90;;;;;;5065962;28;20465;-68
2022/11/12 14:19:08;;;;;;;10.73;3.90;;;12.90;99.90;;;;;;5065665;28;20475;-68
2022/11/12 14:21:35;;;;;;;3.50;3.20;;;12.90;99.90;;;;;;5066153;28;20475;-69
2022/11/12 14:24:03;;;;;;;3.80;3.40;;;12.90;99.90;;;;;;5066077;28;20978;-68
2022/11/12 14:26:35;;;;;;;5.83;4.10;;;12.80;99.90;;;;;;5065675;28;20481;-69
2022/11/12 14:29:02;;;;;;;5.53;4.23;;;12.80;99.90;;;;;;5065799;28;20462;-69
2022/11/12 14:31:30;;;;;;;4.03;3.63;;;12.70;99.90;;;;;;5064818;28;20479;-69
2022/11/12 14:33:57;;;;;;;3.43;3.13;;;12.60;99.90;;;;;;5065881;28;20464;-69
2022/11/12 14:36:24;;;;;;;3.60;3.30;;;12.50;99.90;;;;;;5065564;28;20470;-68
2022/11/12 14:38:53;;;;;;;3.90;3.60;;;12.40;99.90;;;;;;5065955;28;20479;-67
2022/11/12 14:41:22;;;;;;;5.18;4.45;;;12.40;99.90;;;;;;5064649;28;20343;-68
2022/11/12 14:43:52;;;;;;;4.70;3.63;;;12.30;99.90;;;;;;5065885;28;20227;-69
2022/11/12 14:46:25;;;;;;;4.17;3.77;;;12.20;99.90;;;;;;5065560;28;20532;-69
2022/11/12 14:48:56;;;;;;;5.00;3.70;;;12.20;99.90;;;;;;5065232;28;20451;-67
2022/11/12 14:51:28;;;;;;;4.80;3.90;;;12.10;99.90;;;;;;5064465;28;20483;-69
2022/11/12 14:53:59;;;;;;;5.82;3.80;;;12.10;99.90;;;;;;5065852;28;20220;-67
2022/11/12 14:56:32;;;;;;;4.60;4.05;;;12.00;99.90;;;;;;5065045;28;20574;-68
2022/11/12 14:59:00;;;;;;;4.53;4.00;;;11.90;99.90;;;;;;5066019;28;20225;-69
2022/11/12 15:01:31;;;;;;;4.03;3.40;;;11.90;99.90;;;;;;5064706;28;20221;-69
2022/11/12 15:04:23;;;;;;;4.35;3.95;;;11.80;99.90;;;;;;5065232;28;20625;-69
2022/11/12 15:06:55;;;;;;;4.13;3.50;;;11.70;99.90;;;;;;5065611;28;20205;-69
2022/11/12 15:09:36;;;;;;;6.00;4.97;;;11.60;99.90;;;;;;5062123;28;20200;-69
2022/11/12 15:12:05;;;;;;;5.20;4.03;;;11.50;99.90;;;;;;5051635;28;20206;-69
2022/11/12 15:14:33;;;;;;;5.35;3.60;;;11.40;99.90;;;;;;5051270;28;20646;-68
2022/11/12 15:17:00;;;;;;;4.00;3.60;;;11.40;99.90;;;;;;5052190;28;20742;-69
2022/11/12 15:19:31;;;;;;;4.05;3.10;;;11.40;99.90;;;;;;5051350;28;20315;-69
2022/11/12 15:22:00;;;;;;;3.85;3.50;;;11.30;99.90;;;;;;5052405;28;20213;-69
2022/11/12 15:24:31;;;;;;;5.53;3.50;;;11.20;99.90;;;;;;5052528;28;20578;-68
2022/11/12 15:26:59;;;;;;;3.92;3.25;;;11.10;99.90;;;;;;5051493;28;20570;-69
2022/11/12 15:29:32;;;;;;;4.45;3.65;;;11.00;99.90;;;;;;5051452;28;20561;-69
2022/11/12 15:32:01;;;;;;;6.00;4.60;;;10.90;99.90;;;;;;5051718;28;20202;-69
2022/11/12 15:34:32;;;;;;;4.15;3.60;;;10.80;99.90;;;;;;5051472;28;20224;-69
2022/11/12 15:37:02;;;;;;;3.53;3.13;;;10.70;99.90;;;;;;5052267;28;20256;-69
2022/11/12 15:39:30;;;;;;;5.53;3.97;;;10.60;99.90;;;;;;5051244;28;20763;-68
2022/11/12 15:41:59;;;;;;;4.65;3.60;;;10.50;99.90;;;;;;5050849;28;20206;-69
2022/11/12 15:44:30;;;;;;;5.63;4.03;;;10.40;99.90;;;;;;5050939;28;20210;-68
2022/11/12 15:46:57;;;;;;;4.18;3.45;;;10.40;99.90;;;;;;5051994;28;20202;-68
2022/11/12 15:49:24;;;;;;;4.38;3.92;;;10.30;99.90;;;;;;5050218;28;20202;-67
2022/11/12 15:51:52;;;;;;;3.75;3.22;;;10.20;99.90;;;;;;5048430;28;20838;-68
2022/11/12 15:54:19;;;;;;;4.15;3.38;;;10.10;99.90;;;;;;5049580;28;20208;-69
2022/11/12 15:56:46;;;;;;;4.15;2.70;;;10.00;99.90;;;;;;5049561;28;20198;-69
2022/11/12 15:59:16;;;;;;;2.55;2.35;;;10.00;99.90;;;;;;5050951;28;20225;-69
2022/11/12 16:01:43;;;;;;;3.92;3.05;;;9.90;99.90;;;;;;5051557;28;20202;-68
2022/11/12 16:04:10;;;;;;;4.45;3.20;;;9.90;99.90;;;;;;5050744;28;20206;-69
2022/11/12 16:06:37;;;;;;;3.10;2.75;;;9.80;99.90;;;;;;5051378;28;20228;-69
2022/11/12 16:09:05;;;;;;;4.75;3.35;;;9.70;99.90;;;;;;5049920;28;20207;-69
2022/11/12 16:11:35;;;;;;;3.20;2.80;;;9.60;99.90;;;;;;5037441;28;20221;-69
2022/11/12 16:14:02;;;;;;;3.28;2.97;;;9.60;99.90;;;;;;5031048;28;20297;-69
2022/11/12 16:16:29;;;;;;;2.88;2.58;;;9.40;99.90;;;;;;5030640;28;20202;-68
2022/11/12 16:18:56;;;;;;;4.80;3.65;;;9.40;99.90;;;;;;5030069;28;20320;-68
2022/11/12 16:21:23;;;;;;;4.97;3.80;;;9.30;99.90;;;;;;5028830;28;20222;-69
2022/11/12 16:23:50;;;;;;;3.65;3.17;;;9.20;99.90;;;;;;5039412;28;20361;-68
2022/11/12 16:26:23;;;;;;;3.78;3.10;;;9.10;99.90;;;;;;5049893;28;20579;-68
2022/11/12 16:28:49;;;;;;;4.45;3.47;;;9.00;99.90;;;;;;5050689;28;20197;-68
2022/11/12 16:31:16;;;;;;;3.85;3.40;;;8.90;99.90;;;;;;5050034;28;20226;-68
2022/11/12 16:33:43;;;;;;;3.60;3.03;;;8.90;99.90;;;;;;5049881;28;20220;-68
2022/11/12 16:36:14;;;;;;;6.22;4.00;;;8.80;99.90;;;;;;5050120;28;20202;-68
2022/11/12 16:38:41;;;;;;;4.30;3.42;;;8.70;99.90;;;;;;5050312;28;20214;-70
2022/11/12 16:41:10;;;;;;;3.80;3.38;;;8.70;99.90;;;;;;5048818;28;20221;-67
2022/11/12 16:43:38;;;;;;;3.60;3.30;;;8.70;99.90;;;;;;5050699;28;20202;-69
2022/11/12 16:46:14;;;;;;;6.55;4.15;;;8.60;99.90;;;;;;5050340;28;20213;-69
2022/11/12 16:48:41;;;;;;;3.78;3.25;;;8.50;99.90;;;;;;5052003;28;20205;-68
2022/11/12 16:51:14;;;;;;;3.85;3.47;;;8.40;99.90;;;;;;5050355;28;20582;-69
2022/11/12 16:53:41;;;;;;;4.88;4.20;;;8.40;99.90;;;;;;5050822;28;20231;-69
2022/11/12 16:56:11;;;;;;;3.95;3.55;;;8.30;99.90;;;;;;5051508;28;20703;-69
2022/11/12 16:58:40;;;;;;;5.80;4.30;;;8.30;99.90;;;;;;5051027;28;20232;-69
2022/11/12 17:01:07;;;;;;;5.13;3.70;;;8.20;99.90;;;;;;5050906;28;20228;-68
2022/11/12 17:03:34;;;;;;;5.53;4.65;;;8.10;99.90;;;;;;5051028;28;20228;-68
2022/11/12 17:06:01;;;;;;;4.70;3.80;;;8.10;99.90;;;;;;5051474;28;20204;-68
2022/11/12 17:08:28;;;;;;;4.60;3.95;;;8.00;99.90;;;;;;5050833;28;20244;-69
2022/11/12 17:10:55;;;;;;;6.57;4.68;;;8.00;99.90;;;;;;5050661;28;20226;-69
2022/11/12 17:13:22;;;;;;;4.53;3.85;;;7.90;99.90;;;;;;5050832;28;20205;-69
2022/11/12 17:15:56;;;;;;;4.28;3.88;;;7.80;99.90;;;;;;5050816;28;20202;-69
2022/11/12 17:18:23;;;;;;;4.47;4.07;;;7.80;99.90;;;;;;5050994;28;20205;-68
2022/11/12 17:20:49;;;;;;;5.10;4.60;;;7.80;99.90;;;;;;5049902;28;20218;-69
2022/11/12 17:23:16;;;;;;;5.40;4.63;;;7.70;99.90;;;;;;5050715;28;20450;-78
2022/11/12 17:25:43;;;;;;;6.70;4.18;;;7.60;99.90;;;;;;5050639;28;20660;-70
2022/11/12 17:28:09;;;;;;;8.52;5.20;;;7.60;99.90;;;;;;5051008;28;20216;-69
2022/11/12 17:30:36;;;;;;;7.30;5.10;;;7.60;99.90;;;;;;5047724;28;20516;-70
2022/11/12 17:33:05;;;;;;;8.15;4.72;;;7.50;99.90;;;;;;5049552;28;20580;-70
2022/11/12 17:35:33;;;;;;;8.77;5.25;;;7.40;99.90;;;;;;5049833;28;20206;-69
2022/11/12 17:38:00;;;;;;;7.70;4.95;;;7.40;99.90;;;;;;5048006;28;20787;-69
2022/11/12 17:40:26;;;;;;;6.05;4.78;;;7.40;99.90;;;;;;5046762;28;20244;-70
2022/11/12 17:42:53;;;;;;;10.68;4.57;;;7.30;99.90;;;;;;5047500;28;20210;-69
2022/11/12 17:45:20;;;;;;;7.30;4.88;;;7.30;99.90;;;;;;5047791;28;20209;-69
2022/11/12 17:47:47;;;;;;;5.95;4.68;;;7.30;99.90;;;;;;5047529;28;20202;-70
2022/11/12 17:50:16;;;;;;;6.00;4.80;;;7.20;99.90;;;;;;5046886;28;20220;-69
2022/11/12 17:52:42;;;;;;;5.20;4.57;;;7.20;99.90;;;;;;5047639;28;20210;-69
2022/11/12 17:55:10;;;;;;;5.05;3.95;;;7.20;99.90;;;;;;5047415;28;20206;-70
2022/11/12 17:57:36;;;;;;;5.65;4.82;;;7.10;99.90;;;;;;5047844;28;20324;-68
2022/11/12 18:00:04;;;;;;;6.32;5.28;;;7.10;99.90;;;;;;5047106;28;20239;-70
2022/11/12 18:02:32;;;;;;;5.65;4.88;;;7.00;99.90;;;;;;5047133;28;20214;-69
2022/11/12 18:04:58;;;;;;;6.72;4.75;;;7.00;99.90;;;;;;5047416;28;20300;-68
2022/11/12 18:07:26;;;;;;;5.75;4.90;;;7.00;99.90;;;;;;5047572;28;20210;-69
2022/11/12 18:09:54;;;;;;;5.50;4.90;;;6.90;99.90;;;;;;5047483;28;20890;-69
2022/11/12 18:12:20;;;;;;;8.25;5.38;;;6.90;99.90;;;;;;5047892;28;20262;-70
2022/11/12 18:14:47;;;;;;;7.78;4.72;;;6.90;99.90;;;;;;5047854;28;20213;-68
2022/11/12 18:17:14;;;;;;;9.77;4.70;;;6.80;99.90;;;;;;5046515;28;20209;-70
2022/11/12 18:19:41;;;;;;;9.65;4.97;;;6.80;99.90;;;;;;5047044;28;20620;-70
2022/11/12 18:22:10;;;;;;;8.50;4.75;;;6.80;99.90;;;;;;5045777;28;20209;-69
2022/11/12 18:24:38;;;;;;;5.65;5.10;;;6.70;99.90;;;;;;5047103;28;20210;-70
2022/11/12 18:27:05;;;;;;;8.40;6.20;;;6.60;99.90;;;;;;5047298;28;20208;-70
2022/11/12 18:29:32;;;;;;;7.15;5.28;;;6.60;99.90;;;;;;5046587;28;20205;-68
2022/11/12 18:31:59;;;;;;;9.50;5.93;;;6.60;99.90;;;;;;5046662;28;20213;-70
2022/11/12 18:34:26;;;;;;;10.18;5.75;;;6.60;99.90;;;;;;5046690;28;20206;-70
2022/11/12 18:36:52;;;;;;;6.97;5.32;;;6.60;99.90;;;;;;5047220;28;20236;-68
2022/11/12 18:39:19;;;;;;;6.57;5.85;;;6.50;99.90;;;;;;5046201;28;20640;-70
2022/11/12 18:41:47;;;;;;;8.02;5.75;;;6.50;99.90;;;;;;5046700;28;20213;-70
2022/11/12 18:44:14;;;;;;;7.68;6.20;;;6.50;99.90;;;;;;5047092;28;20685;-70
2022/11/12 18:46:41;;;;;;;8.13;6.55;;;6.40;99.90;;;;;;5050194;28;20576;-68
2022/11/12 18:49:08;;;;;;;7.70;6.72;;;6.40;99.90;;;;;;5050612;28;20205;-70
2022/11/12 18:51:35;;;;;;;7.93;6.68;;;6.30;99.90;;;;;;5049596;28;20242;-70
2022/11/12 18:54:01;;;;;;;8.70;6.93;;;6.30;99.90;;;;;;5050634;28;20202;-69
2022/11/12 18:56:29;;;;;;;9.50;7.20;;;6.30;99.90;;;;;;5046140;28;20209;-70
2022/11/12 18:58:57;;;;;;;8.90;7.70;;;6.30;99.90;;;;;;5030160;28;20304;-70
2022/11/12 19:01:25;;;;;;;9.70;7.03;;;6.20;99.90;;;;;;5030066;28;20227;-70
2022/11/12 19:03:53;;;;;;;7.70;6.32;;;6.20;99.90;;;;;;5030505;28;20222;-70
2022/11/12 19:06:20;;;;;;;9.52;7.45;;;6.20;99.90;;;;;;5030562;28;20210;-70
2022/11/12 19:08:47;;;;;;;8.23;6.55;;;6.20;99.90;;;;;;5029987;28;20210;-70
2022/11/12 19:11:15;;;;;;;7.53;6.65;;;6.10;99.90;;;;;;5030040;28;20227;-70
2022/11/12 19:13:43;;;;;;;8.95;7.25;;;6.10;99.90;;;;;;5030503;28;20217;-68
2022/11/12 19:16:14;;;;;;;9.00;7.60;;;6.10;99.90;;;;;;5030413;28;20247;-70
2022/11/12 19:18:41;;;;;;;10.20;7.30;;;6.10;99.90;;;;;;5030421;28;20715;-68
2022/11/12 19:21:10;;;;;;;10.35;7.25;;;6.00;99.90;;;;;;5029607;28;20230;-70
2022/11/12 19:23:37;;;;;;;10.27;8.70;;;6.00;99.90;;;;;;5030186;28;20203;-68
2022/11/12 19:26:05;;;;;;;8.80;6.55;;;6.00;99.90;;;;;;5029882;28;20213;-70
2022/11/12 19:28:34;;;;;;;8.10;6.93;;;6.00;99.90;;;;;;5030041;28;20208;-69
2022/11/12 19:31:03;;;;;;;10.63;7.07;;;6.00;99.90;;;;;;5029607;28;20222;-70
2022/11/12 19:33:33;;;;;;;9.45;6.45;;;5.90;99.90;;;;;;5057686;22;21370;-95
2022/11/12 19:35:59;;;;;;;10.00;7.65;;;5.90;99.90;;;;;;5068058;28;20179;-96
2022/11/12 19:38:27;;;;;;;9.98;7.47;;;5.90;99.90;;;;;;5075998;28;20253;-92
2022/11/12 19:40:54;;;;;;;10.10;7.78;;;5.90;99.90;;;;;;5062355;28;20237;-93
2022/11/12 19:43:23;;;;;;;7.50;6.57;;;5.90;99.90;;;;;;5059501;28;20282;-93
2022/11/12 19:45:50;;;;;;;8.63;6.55;;;5.90;99.90;;;;;;5059879;28;20185;-93
2022/11/12 19:48:16;;;;;;;6.60;5.90;;;5.90;99.90;;;;;;5059677;28;20184;-93
2022/11/12 19:50:45;;;;;;;7.68;5.55;;;5.80;99.90;;;;;;5059237;28;20322;-92
2022/11/12 19:53:11;;;;;;;9.38;5.45;;;5.80;99.90;;;;;;5059557;28;20218;-92
2022/11/12 19:55:38;;;;;;;6.03;5.20;;;5.80;99.90;;;;;;5059207;28;20206;-92
2022/11/12 19:58:06;;;;;;;6.93;5.32;;;5.70;99.90;;;;;;5059595;28;20246;-93
2022/11/12 20:00:33;;;;;;;6.65;6.00;;;5.70;99.90;;;;;;5058809;28;20210;-93
2022/11/12 20:03:00;;;;;;;10.02;7.70;;;5.70;99.90;;;;;;5059385;28;20203;-93
2022/11/12 20:05:27;;;;;;;7.28;6.50;;;5.70;99.90;;;;;;5059239;28;20210;-93
2022/11/12 20:07:55;;;;;;;10.00;7.78;;;5.60;99.90;;;;;;5059089;28;20246;-92
2022/11/12 20:10:22;;;;;;;9.52;7.93;;;5.60;99.90;;;;;;5058851;28;20293;-92
2022/11/12 20:12:49;;;;;;;7.72;6.50;;;5.60;99.90;;;;;;5059015;28;20227;-91
2022/11/12 20:15:16;;;;;;;8.43;6.80;;;5.60;99.90;;;;;;5059163;28;20190;-94
2022/11/12 20:17:43;;;;;;;8.75;5.90;;;5.60;99.90;;;;;;5059088;28;20191;-93
2022/11/12 20:20:10;;;;;;;6.20;5.25;;;5.50;99.90;;;;;;5058701;28;20204;-92
2022/11/12 20:22:37;;;;;;;6.72;5.50;;;5.50;99.90;;;;;;5058691;28;20200;-92
2022/11/12 20:25:06;;;;;;;8.93;6.15;;;5.40;99.90;;;;;;5058759;28;20214;-94
2022/11/12 20:27:33;;;;;;;8.07;5.90;;;5.50;99.90;;;;;;5058832;28;20242;-95
2022/11/12 20:29:59;;;;;;;9.57;6.50;;;5.40;99.90;;;;;;5058506;28;20254;-92
2022/11/12 20:32:26;;;;;;;6.60;6.00;;;5.40;99.90;;;;;;5058508;28;20178;-92
2022/11/12 20:34:53;;;;;;;7.30;6.15;;;5.40;99.90;;;;;;5058661;28;20269;-92
2022/11/12 20:37:21;;;;;;;9.18;5.70;;;5.40;99.90;;;;;;5058534;28;20217;-92
2022/11/12 20:39:48;;;;;;;6.70;5.45;;;5.40;99.90;;;;;;5058457;28;20206;-93
2022/11/12 20:42:16;;;;;;;7.25;5.70;;;5.30;99.90;;;;;;5058302;28;20264;-93
2022/11/12 20:44:43;;;;;;;7.30;5.75;;;5.30;99.90;;;;;;5058577;28;20191;-93
2022/11/12 20:47:10;;;;;;;8.02;5.50;;;5.30;99.90;;;;;;5058520;28;20258;-92
2022/11/12 20:49:36;;;;;;;6.82;6.10;;;5.20;99.90;;;;;;5058052;28;20191;-93
2022/11/12 20:52:03;;;;;;;7.88;6.15;;;5.20;99.90;;;;;;5058279;28;20218;-92
2022/11/12 20:54:30;;;;;;;8.38;6.30;;;5.20;99.90;;;;;;5058061;28;20197;-93
2022/11/12 20:56:58;;;;;;;6.85;5.40;;;5.20;99.90;;;;;;5058388;28;20183;-93
2022/11/12 20:59:27;;;;;;;10.25;5.30;;;5.10;99.90;;;;;;5057995;28;20200;-95
2022/11/12 21:01:56;;;;;;;9.40;5.97;;;5.10;99.90;;;;;;5057883;28;20195;-92
2022/11/12 21:04:23;;;;;;;8.15;6.15;;;5.00;99.90;;;;;;5058047;28;20200;-90
2022/11/12 21:06:50;;;;;;;10.35;6.40;;;5.00;99.90;;;;;;5058000;28;20183;-92
2022/11/12 21:09:17;;;;;;;7.30;5.97;;;5.00;99.90;;;;;;5057579;28;20246;-92
2022/11/12 21:11:44;;;;;;;9.35;6.75;;;5.00;99.90;;;;;;5057546;28;20215;-92
2022/11/12 21:14:13;;;;;;;10.05;6.50;;;4.90;99.90;;;;;;5058043;28;20210;-92
2022/11/12 21:16:41;;;;;;;11.13;6.95;;;4.90;99.90;;;;;;5058295;28;20199;-93
2022/11/12 21:19:08;;;;;;;9.77;6.15;;;4.90;99.90;;;;;;5057798;28;20181;-92
2022/11/12 21:21:35;;;;;;;9.32;6.72;;;4.90;99.90;;;;;;5057485;28;20214;-93
2022/11/12 21:24:02;;;;;;;7.95;6.22;;;4.90;99.90;;;;;;5057708;28;20264;-92
2022/11/12 21:26:28;;;;;;;8.35;6.20;;;4.80;99.90;;;;;;5057796;28;20183;-93
2022/11/12 21:28:55;;;;;;;7.25;6.50;;;4.80;99.90;;;;;;5057731;28;20199;-95
2022/11/12 21:31:24;;;;;;;8.48;6.20;;;4.80;99.90;;;;;;5057746;28;20187;-92
2022/11/12 21:33:53;;;;;;;6.70;5.70;;;4.80;99.90;;;;;;5057551;28;20261;-93
2022/11/12 21:36:20;;;;;;;9.20;5.85;;;4.80;99.90;;;;;;5057553;28;20187;-92
2022/11/12 21:38:47;;;;;;;8.48;6.20;;;4.70;99.90;;;;;;5057799;28;20184;-94
2022/11/12 21:41:17;;;;;;;8.10;6.00;;;4.70;99.90;;;;;;5056947;28;20253;-91
2022/11/12 21:43:44;;;;;;;6.78;5.18;;;4.60;99.90;;;;;;5057619;28;20200;-93
2022/11/12 21:46:14;;;;;;;9.77;6.40;;;4.60;99.90;;;;;;5057582;28;20226;-93
2022/11/12 21:48:40;;;;;;;10.55;6.00;;;4.60;99.90;;;;;;5057168;28;20178;-93
2022/11/12 21:51:11;;;;;;;8.05;6.28;;;4.50;99.90;;;;;;5057268;28;20206;-92
2022/11/12 21:53:38;;;;;;;6.45;4.90;;;4.50;99.90;;;;;;5057196;28;20194;-92
2022/11/12 21:56:07;;;;;;;6.43;5.10;;;4.50;99.90;;;;;;5057506;28;20253;-93
2022/11/12 21:58:34;;;;;;;6.25;4.75;;;4.50;99.90;;;;;;5057152;28;20186;-93
2022/11/12 22:01:09;;;;;;;7.90;5.72;;;4.60;99.90;;;;;;5057488;28;20281;-92
2022/11/12 22:03:36;;;;;;;7.57;5.25;;;4.50;99.90;;;;;;5056442;28;20526;-95
2022/11/12 22:06:03;;;;;;;8.75;5.20;;;4.50;99.90;;;;;;5057234;28;20205;-94
2022/11/12 22:08:31;;;;;;;6.18;5.32;;;4.50;99.90;;;;;;5044320;28;20211;-95
2022/11/12 22:11:02;;;;;;;6.65;5.25;;;4.50;99.90;;;;;;5037088;28;20204;-94
2022/11/12 22:13:29;;;;;;;5.38;4.80;;;4.50;99.90;;;;;;5037556;28;20191;-93
2022/11/12 22:15:56;;;;;;;6.72;5.10;;;4.50;99.90;;;;;;5037407;28;20210;-94
2022/11/12 22:18:24;;;;;;;7.07;4.75;;;4.40;99.90;;;;;;5037459;28;20183;-94
2022/11/12 22:20:58;;;;;;;6.43;4.78;;;4.40;99.90;;;;;;5040351;28;20290;-93
2022/11/12 22:23:25;;;;;;;6.28;4.70;;;4.40;99.90;;;;;;5040853;28;20239;-94
2022/11/12 22:25:57;;;;;;;9.40;6.35;;;4.40;99.90;;;;;;5040840;28;20201;-93
2022/11/12 22:28:24;;;;;;;10.63;6.40;;;4.40;99.90;;;;;;5029865;28;20203;-95
2022/11/12 22:30:52;;;;;;;12.35;7.05;;;4.40;99.90;;;;;;5067467;22;20258;-72
2022/11/12 22:33:19;;;;;;;7.65;5.82;;;4.40;99.90;;;;;;5053315;28;20281;-72
2022/11/12 22:35:46;;;;;;;9.00;6.20;;;4.40;99.90;;;;;;5053469;28;20204;-72
2022/11/12 22:38:13;;;;;;;7.47;6.65;;;4.30;99.90;;;;;;5052995;28;20203;-72
2022/11/12 22:40:40;;;;;;;9.57;6.53;;;4.30;99.90;;;;;;5051532;28;20240;-72
2022/11/12 22:43:08;;;;;;;10.38;6.45;;;4.30;99.90;;;;;;5025630;28;20207;-71
2022/11/12 22:45:35;;;;;;;9.40;7.13;;;4.30;99.90;;;;;;5013308;28;20685;-71
2022/11/12 22:48:02;;;;;;;8.55;6.15;;;4.20;99.90;;;;;;5031225;28;20293;-71
2022/11/12 22:50:29;;;;;;;6.85;5.20;;;4.20;99.90;;;;;;5011799;28;20596;-71
2022/11/12 22:52:56;;;;;;;8.23;5.38;;;4.30;99.90;;;;;;5012647;28;20321;-71
2022/11/12 22:55:23;;;;;;;6.38;5.10;;;4.30;99.90;;;;;;5013093;28;20199;-71
2022/11/12 22:57:49;;;;;;;5.78;4.45;;;4.30;99.90;;;;;;5013093;28;20214;-72
2022/11/12 23:00:19;;;;;;;8.75;5.70;;;4.30;99.90;;;;;;5012745;28;20211;-72
2022/11/12 23:02:46;;;;;;;7.15;4.80;;;4.20;99.90;;;;;;5018262;28;20291;-71
2022/11/12 23:05:13;;;;;;;5.93;5.00;;;4.20;99.90;;;;;;5012591;28;20712;-72
2022/11/12 23:07:39;;;;;;;7.43;5.25;;;4.30;99.90;;;;;;5012205;28;20207;-71